createdAt,value
2022-11-19T00:01:27.706Z,7.10
2022-11-19T00:03:55.395Z,7.20
2022-11-19T00:06:26.352Z,7.10
2022-11-19T00:08:54.493Z,7.20
2022-11-19T00:11:43.712Z,7.20
2022-11-19T00:14:13.312Z,7.20
2022-11-19T00:16:44.191Z,7.10
2022-11-19T00:19:12.528Z,7.10
2022-11-19T00:21:39.742Z,7.00
2022-11-19T00:24:08.729Z,7.00
2022-11-19T00:26:36.248Z,7.00
2022-11-19T00:29:03.962Z,7.00
2022-11-19T00:31:32.137Z,7.00
2022-11-19T00:33:59.265Z,7.00
2022-11-19T00:36:26.316Z,7.00
2022-11-19T00:38:53.349Z,6.90
2022-11-19T00:41:20.401Z,7.10
2022-11-19T00:43:47.687Z,7.00
2022-11-19T00:46:19.520Z,6.90
2022-11-19T00:48:49.032Z,6.90
2022-11-19T00:51:18.019Z,6.90
2022-11-19T00:53:45.207Z,6.80
2022-11-19T00:56:16.993Z,6.90
2022-11-19T00:58:44.553Z,6.90
2022-11-19T01:01:12.709Z,7.00
2022-11-19T01:03:41.742Z,7.00
2022-11-19T01:06:11.148Z,7.00
2022-11-19T01:08:39.439Z,7.10
2022-11-19T01:11:14.682Z,7.10
2022-11-19T01:13:42.015Z,7.00
2022-11-19T01:16:16.705Z,7.00
2022-11-19T01:18:47.410Z,7.00
2022-11-19T01:21:15.982Z,7.10
2022-11-19T01:23:44.419Z,7.00
2022-11-19T01:26:13.146Z,7.00
2022-11-19T01:28:42.325Z,7.10
2022-11-19T01:31:25.579Z,7.10
2022-11-19T01:33:52.821Z,7.10
2022-11-19T01:36:23.709Z,7.20
2022-11-19T01:38:51.926Z,7.20
2022-11-19T01:41:32.014Z,7.20
2022-11-19T01:44:05.624Z,7.10
2022-11-19T01:46:37.645Z,7.10
2022-11-19T01:49:17.808Z,7.10
2022-11-19T01:51:56.774Z,7.10
2022-11-19T01:54:34.155Z,7.00
2022-11-19T01:57:07.576Z,7.00
2022-11-19T01:59:35.068Z,7.00
2022-11-19T02:02:02.109Z,7.00
2022-11-19T02:04:29.817Z,7.00
2022-11-19T02:06:57.770Z,7.00
2022-11-19T02:09:27.150Z,7.00
2022-11-19T02:12:24.574Z,7.10
2022-11-19T02:15:19.236Z,7.00
2022-11-19T02:18:04.222Z,7.00
2022-11-19T02:20:45.067Z,7.10
2022-11-19T02:23:58.025Z,7.10
2022-11-19T02:26:59.669Z,7.00
2022-11-19T02:29:29.746Z,7.00
2022-11-19T02:32:19.374Z,7.00
2022-11-19T02:35:55.985Z,7.00
2022-11-19T02:38:41.551Z,6.90
2022-11-19T02:41:34.269Z,6.80
2022-11-19T02:44:45.566Z,6.80
2022-11-19T02:47:24.105Z,6.80
2022-11-19T02:49:57.897Z,6.90
2022-11-19T02:52:25.147Z,6.90
2022-11-19T02:54:52.145Z,6.90
2022-11-19T02:57:19.182Z,6.90
2022-11-19T03:00:30.401Z,6.90
2022-11-19T03:03:23.605Z,7.00
2022-11-19T03:05:57.785Z,7.00
2022-11-19T03:08:25.085Z,7.00
2022-11-19T03:11:23.689Z,7.00
2022-11-19T03:14:29.922Z,7.10
2022-11-19T03:17:22.422Z,7.10
2022-11-19T03:19:57.293Z,7.10
2022-11-19T03:22:51.547Z,7.10
2022-11-19T03:25:41.958Z,7.10
2022-11-19T03:28:15.481Z,7.10
2022-11-19T03:30:45.766Z,7.10
2022-11-19T03:33:37.681Z,7.20
2022-11-19T03:36:32.961Z,7.10
2022-11-19T03:39:05.609Z,7.10
2022-11-19T03:41:36.264Z,7.00
2022-11-19T03:44:30.630Z,7.00
2022-11-19T03:47:07.135Z,6.90
2022-11-19T03:49:39.090Z,7.00
2022-11-19T03:52:20.950Z,7.00
2022-11-19T03:54:48.285Z,7.00
2022-11-19T03:57:19.634Z,6.90
2022-11-19T03:59:47.612Z,6.90
2022-11-19T04:02:15.547Z,6.90
2022-11-19T04:04:42.758Z,6.90
2022-11-19T04:07:18.733Z,6.90
2022-11-19T04:09:46.221Z,7.00
2022-11-19T04:12:19.139Z,6.90
2022-11-19T04:14:47.260Z,6.90
2022-11-19T04:17:16.890Z,6.90
2022-11-19T04:19:44.033Z,6.90
2022-11-19T04:22:11.382Z,6.90
2022-11-19T04:24:40.471Z,6.90
2022-11-19T04:27:07.512Z,6.90
2022-11-19T04:29:34.516Z,6.90
2022-11-19T04:32:01.532Z,6.90
2022-11-19T04:34:28.590Z,6.80
2022-11-19T04:36:55.665Z,6.80
2022-11-19T04:39:22.988Z,6.80
2022-11-19T04:41:50.139Z,6.80
2022-11-19T04:44:17.166Z,6.80
2022-11-19T04:46:44.488Z,6.80
2022-11-19T04:49:11.582Z,6.80
2022-11-19T04:51:38.718Z,6.90
2022-11-19T04:54:08.644Z,6.90
2022-11-19T04:56:37.265Z,6.90
2022-11-19T04:59:04.889Z,6.90
2022-11-19T05:01:32.151Z,6.90
2022-11-19T05:03:59.441Z,6.90
2022-11-19T05:06:26.605Z,6.80
2022-11-19T05:08:53.621Z,6.80
2022-11-19T05:11:20.697Z,6.70
2022-11-19T05:13:47.685Z,6.70
2022-11-19T05:16:14.904Z,6.70
2022-11-19T05:18:41.967Z,6.70
2022-11-19T05:21:09.314Z,6.80
2022-11-19T05:23:36.410Z,6.80
2022-11-19T05:26:03.581Z,6.70
2022-11-19T05:28:39.039Z,6.70
2022-11-19T05:31:08.032Z,6.70
2022-11-19T05:33:35.675Z,6.80
2022-11-19T05:36:03.626Z,6.80
2022-11-19T05:38:30.692Z,6.80
2022-11-19T05:40:57.790Z,6.80
2022-11-19T05:43:24.837Z,6.70
2022-11-19T05:45:51.891Z,6.70
2022-11-19T05:48:18.914Z,6.70
2022-11-19T05:50:45.925Z,6.70
2022-11-19T05:53:13.001Z,6.70
2022-11-19T05:55:41.039Z,6.70
2022-11-19T05:58:08.277Z,6.70
2022-11-19T06:00:35.352Z,6.60
2022-11-19T06:03:02.369Z,6.60
2022-11-19T06:05:29.370Z,6.70
2022-11-19T06:07:56.389Z,6.70
2022-11-19T06:10:23.516Z,6.70
2022-11-19T06:12:50.585Z,6.70
2022-11-19T06:15:19.110Z,6.70
2022-11-19T06:17:46.112Z,6.70
2022-11-19T06:20:13.290Z,6.70
2022-11-19T06:22:41.826Z,6.40
2022-11-19T06:25:09.359Z,6.10
2022-11-19T06:27:36.429Z,5.70
2022-11-19T06:30:04.758Z,5.50
2022-11-19T06:32:31.824Z,5.40
2022-11-19T06:34:58.873Z,5.30
2022-11-19T06:37:25.978Z,5.10
2022-11-19T06:39:54.229Z,5.00
2022-11-19T06:42:36.878Z,5.00
2022-11-19T06:45:13.804Z,4.90
2022-11-19T06:47:42.304Z,4.90
2022-11-19T06:50:11.253Z,4.90
2022-11-19T06:52:38.641Z,4.90
2022-11-19T06:55:06.431Z,4.90
2022-11-19T06:57:33.801Z,4.90
2022-11-19T07:00:00.952Z,4.90
2022-11-19T07:02:28.115Z,4.90
2022-11-19T07:04:55.107Z,4.90
2022-11-19T07:07:22.216Z,4.90
2022-11-19T07:09:49.341Z,4.80
2022-11-19T07:12:16.347Z,4.80
2022-11-19T07:14:43.397Z,4.80
2022-11-19T07:17:10.489Z,4.70
2022-11-19T07:19:38.066Z,4.70
2022-11-19T07:22:05.244Z,4.70
2022-11-19T07:24:32.285Z,4.60
2022-11-19T07:26:59.280Z,4.60
2022-11-19T07:29:26.343Z,4.60
2022-11-19T07:31:53.461Z,4.60
2022-11-19T07:34:20.726Z,4.60
2022-11-19T07:36:50.227Z,4.60
2022-11-19T07:39:18.076Z,4.50
2022-11-19T07:42:03.692Z,4.60
2022-11-19T07:44:30.799Z,4.70
2022-11-19T07:46:58.169Z,4.70
2022-11-19T07:49:27.216Z,4.70
2022-11-19T07:51:55.115Z,4.70
2022-11-19T07:54:22.205Z,4.80
2022-11-19T07:56:49.653Z,4.90
2022-11-19T07:59:17.592Z,4.90
2022-11-19T08:01:44.933Z,5.00
2022-11-19T08:04:12.086Z,5.10
2022-11-19T08:06:40.301Z,5.00
2022-11-19T08:09:07.362Z,5.00
2022-11-19T08:11:34.748Z,4.90
2022-11-19T08:14:02.036Z,4.80
2022-11-19T08:16:48.406Z,4.80
2022-11-19T08:19:16.810Z,4.80
2022-11-19T08:21:46.964Z,4.70
2022-11-19T08:24:16.696Z,4.60
2022-11-19T08:26:44.233Z,4.50
2022-11-19T08:29:16.403Z,4.50
2022-11-19T08:31:46.299Z,4.50
2022-11-19T08:34:14.332Z,4.60
2022-11-19T08:36:43.450Z,4.60
2022-11-19T08:39:11.827Z,4.60
2022-11-19T08:41:57.526Z,4.70
2022-11-19T08:44:24.652Z,4.70
2022-11-19T08:46:51.741Z,4.70
2022-11-19T08:49:19.271Z,4.60
2022-11-19T08:51:47.850Z,4.60
2022-11-19T08:54:14.850Z,4.60
2022-11-19T08:56:42.004Z,4.50
2022-11-19T08:59:09.113Z,4.50
2022-11-19T09:01:36.138Z,4.50
2022-11-19T09:04:03.129Z,4.60
2022-11-19T09:06:30.298Z,4.60
2022-11-19T09:08:58.415Z,4.60
2022-11-19T09:11:25.825Z,4.60
2022-11-19T09:13:52.989Z,4.60
2022-11-19T09:16:20.011Z,4.50
2022-11-19T09:18:47.080Z,4.50
2022-11-19T09:21:17.010Z,4.40
2022-11-19T09:23:44.356Z,4.40
2022-11-19T09:26:19.925Z,4.30
2022-11-19T09:28:47.056Z,4.20
2022-11-19T09:31:18.918Z,4.10
2022-11-19T09:33:52.353Z,4.10
2022-11-19T09:36:20.583Z,3.90
2022-11-19T09:38:48.834Z,4.10
2022-11-19T09:41:44.054Z,4.10
2022-11-19T09:44:57.141Z,4.00
2022-11-19T09:47:45.706Z,4.00
2022-11-19T09:50:24.173Z,4.10
2022-11-19T09:53:07.577Z,4.10
2022-11-19T09:55:45.822Z,4.10
2022-11-19T09:58:31.445Z,4.10
2022-11-19T10:00:59.750Z,4.10
2022-11-19T10:03:33.197Z,4.10
2022-11-19T10:06:15.697Z,4.10
2022-11-19T10:09:19.854Z,4.10
2022-11-19T10:12:07.636Z,4.10
2022-11-19T10:15:18.464Z,4.10
2022-11-19T10:18:33.321Z,4.10
2022-11-19T10:21:28.382Z,4.10
2022-11-19T10:24:18.361Z,4.10
2022-11-19T10:26:57.781Z,4.10
2022-11-19T10:29:34.793Z,4.20
2022-11-19T10:32:26.934Z,4.20
2022-11-19T10:35:01.195Z,4.30
2022-11-19T10:37:35.934Z,4.30
2022-11-19T10:40:12.275Z,4.20
2022-11-19T10:42:45.409Z,4.10
2022-11-19T10:45:31.395Z,4.00
2022-11-19T10:48:22.326Z,3.80
2022-11-19T10:50:50.732Z,3.70
2022-11-19T10:53:40.685Z,3.70
2022-11-19T10:56:15.733Z,3.70
2022-11-19T10:58:55.006Z,3.80
2022-11-19T11:01:38.977Z,3.80
2022-11-19T11:04:25.451Z,3.80
2022-11-19T11:06:53.657Z,3.80
2022-11-19T11:09:43.819Z,3.80
2022-11-19T11:12:37.660Z,3.70
2022-11-19T11:15:24.682Z,3.70
2022-11-19T11:18:10.328Z,3.70
2022-11-19T11:20:40.359Z,3.70
2022-11-19T11:23:15.413Z,3.60
2022-11-19T11:26:04.773Z,3.60
2022-11-19T11:28:32.933Z,3.60
2022-11-19T11:31:05.505Z,3.60
2022-11-19T11:33:42.997Z,3.60
2022-11-19T11:36:16.871Z,3.60
2022-11-19T11:38:50.932Z,3.70
2022-11-19T11:44:24.017Z,3.80
2022-11-19T11:46:58.236Z,3.90
2022-11-19T11:49:44.224Z,3.90
2022-11-19T11:52:37.469Z,3.80
2022-11-19T11:55:23.990Z,3.80
2022-11-19T11:57:57.184Z,3.70
2022-11-19T12:00:40.355Z,3.70
2022-11-19T12:03:19.094Z,3.80
2022-11-19T12:06:12.077Z,3.90
2022-11-19T12:09:21.071Z,4.00
2022-11-19T12:12:09.578Z,4.10
2022-11-19T12:15:50.756Z,4.10
2022-11-19T12:18:58.590Z,4.00
2022-11-19T12:21:52.994Z,4.00
2022-11-19T12:25:12.932Z,3.90
2022-11-19T12:27:54.766Z,3.80
2022-11-19T12:30:24.913Z,3.80
2022-11-19T12:33:11.257Z,3.90
2022-11-19T12:35:53.147Z,3.90
2022-11-19T12:38:50.850Z,3.90
2022-11-19T12:42:01.884Z,3.80
2022-11-19T12:44:43.111Z,3.80
2022-11-19T12:47:42.068Z,3.80
2022-11-19T12:50:29.849Z,3.90
2022-11-19T12:53:24.760Z,4.00
2022-11-19T12:56:14.150Z,3.90
2022-11-19T12:59:02.749Z,3.90
2022-11-19T13:01:36.378Z,3.90
2022-11-19T13:04:32.271Z,4.00
2022-11-19T13:07:13.905Z,4.00
2022-11-19T13:09:47.691Z,4.00
2022-11-19T13:12:31.873Z,3.90
2022-11-19T13:15:06.057Z,3.90
2022-11-19T13:17:44.640Z,4.10
2022-11-19T13:20:41.336Z,3.90
2022-11-19T13:23:37.794Z,4.00
2022-11-19T13:26:25.858Z,4.10
2022-11-19T13:29:32.795Z,4.10
2022-11-19T13:32:11.505Z,4.20
2022-11-19T13:35:12.043Z,4.30
2022-11-19T13:38:00.406Z,4.40
2022-11-19T13:40:35.251Z,4.40
2022-11-19T13:43:36.980Z,4.40
2022-11-19T13:46:32.497Z,4.40
2022-11-19T13:49:44.215Z,4.20
2022-11-19T13:52:30.181Z,4.20
2022-11-19T13:54:58.847Z,4.20
2022-11-19T13:57:32.376Z,4.20
2022-11-19T14:00:18.827Z,4.10
2022-11-19T14:02:58.668Z,4.20
2022-11-19T14:06:02.274Z,4.20
2022-11-19T14:08:51.868Z,4.00
2022-11-19T14:11:51.279Z,4.00
2022-11-19T14:15:14.808Z,4.00
2022-11-19T14:18:54.549Z,4.00
2022-11-19T14:21:43.759Z,3.90
2022-11-19T14:24:44.190Z,3.90
2022-11-19T14:27:30.824Z,3.90
2022-11-19T14:30:06.703Z,3.80
2022-11-19T14:32:46.329Z,3.70
2022-11-19T14:35:34.981Z,3.70
2022-11-19T14:38:24.841Z,3.70
2022-11-19T14:41:08.288Z,3.70
2022-11-19T14:44:11.074Z,3.70
2022-11-19T14:46:45.090Z,3.70
2022-11-19T14:49:34.741Z,3.70
2022-11-19T14:52:03.313Z,3.50
2022-11-19T14:54:40.237Z,3.40
2022-11-19T14:57:25.739Z,3.30
2022-11-19T15:00:00.946Z,3.20
2022-11-19T15:02:33.906Z,3.30
2022-11-19T15:05:12.814Z,3.30
2022-11-19T15:07:56.099Z,3.20
2022-11-19T15:10:33.073Z,3.30
2022-11-19T15:13:25.073Z,3.30
2022-11-19T15:16:15.719Z,3.30
2022-11-19T15:19:22.213Z,3.20
2022-11-19T15:22:39.525Z,3.20
2022-11-19T15:25:26.897Z,3.20
2022-11-19T15:28:06.438Z,3.10
2022-11-19T15:30:46.744Z,3.00
2022-11-19T15:33:57.713Z,3.00
2022-11-19T15:36:35.299Z,3.00
2022-11-19T15:39:17.505Z,2.90
2022-11-19T15:42:00.753Z,2.90
2022-11-19T15:44:37.342Z,2.70
2022-11-19T15:47:22.457Z,2.70
2022-11-19T15:49:52.165Z,2.70
2022-11-19T15:52:32.163Z,2.70
2022-11-19T15:55:26.882Z,2.70
2022-11-19T15:57:56.443Z,2.70
2022-11-19T16:00:24.018Z,2.70
2022-11-19T16:02:53.006Z,2.70
2022-11-19T16:05:29.853Z,2.70
2022-11-19T16:07:59.966Z,2.60
2022-11-19T16:10:34.338Z,2.70
2022-11-19T16:13:40.129Z,2.60
2022-11-19T16:16:47.641Z,2.60
2022-11-19T16:19:17.012Z,2.60
2022-11-19T16:21:51.958Z,2.60
2022-11-19T16:24:39.676Z,2.70
2022-11-19T16:27:12.923Z,2.70
2022-11-19T16:29:42.588Z,2.70
2022-11-19T16:32:17.074Z,2.80
2022-11-19T16:34:44.752Z,2.60
2022-11-19T16:37:19.605Z,2.60
2022-11-19T16:39:53.801Z,2.50
2022-11-19T16:42:27.001Z,2.50
2022-11-19T16:45:11.450Z,2.60
2022-11-19T16:47:40.716Z,2.50
2022-11-19T16:50:28.366Z,2.60
2022-11-19T16:52:56.463Z,2.50
2022-11-19T16:55:26.438Z,2.50
2022-11-19T16:58:03.846Z,2.50
2022-11-19T17:00:38.255Z,2.40
2022-11-19T17:03:23.779Z,2.40
2022-11-19T17:05:53.305Z,2.30
2022-11-19T17:08:26.716Z,2.30
2022-11-19T17:11:34.522Z,2.30
2022-11-19T17:14:20.240Z,2.40
2022-11-19T17:16:53.297Z,2.30
2022-11-19T17:19:31.586Z,2.30
2022-11-19T17:22:06.804Z,2.40
2022-11-19T17:24:46.116Z,2.30
2022-11-19T17:27:34.426Z,2.40
2022-11-19T17:30:10.519Z,2.40
2022-11-19T17:32:46.982Z,2.40
2022-11-19T17:35:40.080Z,2.30
2022-11-19T17:38:16.809Z,2.30
2022-11-19T17:40:54.786Z,2.30
2022-11-19T17:43:53.194Z,2.30
2022-11-19T17:46:21.689Z,2.30
2022-11-19T17:48:50.300Z,2.30
2022-11-19T17:51:22.893Z,2.20
2022-11-19T17:53:51.961Z,2.20
2022-11-19T17:56:28.043Z,2.20
2022-11-19T17:58:55.909Z,2.20
2022-11-19T18:01:23.441Z,2.10
2022-11-19T18:03:50.701Z,2.10
2022-11-19T18:06:19.735Z,2.10
2022-11-19T18:08:47.211Z,2.10
2022-11-19T18:11:24.626Z,2.10
2022-11-19T18:13:55.581Z,2.10
2022-11-19T18:16:28.568Z,2.20
2022-11-19T18:18:55.621Z,2.20
2022-11-19T18:21:23.854Z,2.10
2022-11-19T18:23:52.423Z,2.20
2022-11-19T18:26:22.764Z,2.20
2022-11-19T18:28:51.375Z,2.10
2022-11-19T18:31:26.230Z,2.10
2022-11-19T18:33:54.926Z,2.00
2022-11-19T18:36:23.469Z,2.10
2022-11-19T18:38:51.785Z,2.10
2022-11-19T18:41:19.108Z,2.00
2022-11-19T18:44:04.629Z,2.00
2022-11-19T18:46:31.823Z,2.10
2022-11-19T18:48:58.841Z,2.10
2022-11-19T18:51:29.752Z,2.20
2022-11-19T18:53:56.729Z,2.20
2022-11-19T18:56:24.565Z,2.20
2022-11-19T18:58:52.240Z,2.30
2022-11-19T19:01:19.542Z,2.30
2022-11-19T19:03:46.760Z,2.30
2022-11-19T19:06:14.111Z,2.40
2022-11-19T19:08:41.232Z,2.40
2022-11-19T19:11:27.392Z,2.50
2022-11-19T19:13:54.538Z,2.50
2022-11-19T19:16:23.441Z,2.50
2022-11-19T19:18:50.580Z,2.40
2022-11-19T19:21:21.219Z,2.30
2022-11-19T19:23:49.225Z,2.30
2022-11-19T19:26:19.914Z,2.20
2022-11-19T19:28:53.096Z,2.10
2022-11-19T19:31:22.802Z,2.00
2022-11-19T19:33:50.887Z,2.00
2022-11-19T19:36:19.889Z,2.00
2022-11-19T19:38:47.478Z,2.00
2022-11-19T19:41:20.069Z,2.00
2022-11-19T19:43:48.753Z,2.00
2022-11-19T19:46:18.465Z,2.00
2022-11-19T19:48:48.584Z,2.00
2022-11-19T19:51:17.271Z,2.00
2022-11-19T19:53:44.928Z,2.00
2022-11-19T19:56:18.614Z,2.00
2022-11-19T19:58:47.810Z,1.90
2022-11-19T20:01:20.300Z,1.90
2022-11-19T20:03:54.102Z,1.90
2022-11-19T20:06:23.724Z,1.90
2022-11-19T20:08:50.954Z,1.90
2022-11-19T20:11:26.784Z,1.90
2022-11-19T20:13:55.886Z,1.90
2022-11-19T20:16:29.707Z,1.90
2022-11-19T20:18:58.711Z,1.90
2022-11-19T20:21:33.920Z,1.90
2022-11-19T20:24:04.861Z,1.90
2022-11-19T20:26:34.432Z,1.90
2022-11-19T20:29:04.929Z,1.90
2022-11-19T20:31:33.579Z,1.90
2022-11-19T20:34:03.914Z,1.90
2022-11-19T20:36:35.716Z,1.90
2022-11-19T20:39:04.052Z,1.90
2022-11-19T20:41:49.983Z,2.00
2022-11-19T20:44:21.789Z,1.90
2022-11-19T20:46:55.857Z,1.90
2022-11-19T20:49:27.060Z,2.10
2022-11-19T20:51:55.155Z,1.90
2022-11-19T20:54:23.802Z,2.00
2022-11-19T20:56:52.722Z,2.00
2022-11-19T20:59:21.302Z,1.90
2022-11-19T21:01:50.325Z,1.90
2022-11-19T21:04:18.985Z,1.90
2022-11-19T21:06:46.980Z,1.90
2022-11-19T21:09:15.867Z,2.00
2022-11-19T21:11:44.579Z,2.00
2022-11-19T21:14:12.585Z,2.10
2022-11-19T21:16:39.577Z,2.00
2022-11-19T21:19:06.653Z,2.10
2022-11-19T21:21:34.325Z,2.10
2022-11-19T21:24:01.363Z,2.10
2022-11-19T21:26:29.619Z,2.10
2022-11-19T21:28:59.239Z,2.20
2022-11-19T21:31:45.650Z,2.20
2022-11-19T21:34:17.685Z,2.20
2022-11-19T21:36:46.140Z,2.30
2022-11-19T21:39:16.422Z,2.30
2022-11-19T21:41:44.054Z,2.30
2022-11-19T21:44:14.308Z,2.30
2022-11-19T21:46:45.279Z,2.30
2022-11-19T21:49:12.397Z,2.30
2022-11-19T21:51:39.403Z,2.40
2022-11-19T21:54:06.567Z,2.40
2022-11-19T21:56:38.223Z,2.40
2022-11-19T21:59:07.271Z,2.50
2022-11-19T22:01:34.903Z,2.50
2022-11-19T22:04:02.358Z,2.60
2022-11-19T22:06:31.813Z,2.60
2022-11-19T22:08:58.950Z,2.60
2022-11-19T22:11:28.656Z,2.60
2022-11-19T22:14:07.904Z,2.60
2022-11-19T22:16:38.079Z,2.70
2022-11-19T22:19:08.160Z,2.70
2022-11-19T22:21:35.852Z,2.70
2022-11-19T22:24:03.804Z,2.70
2022-11-19T22:26:31.024Z,2.70
2022-11-19T22:28:59.378Z,2.70
2022-11-19T22:31:26.635Z,2.60
2022-11-19T22:33:54.070Z,2.70
2022-11-19T22:36:23.460Z,2.70
2022-11-19T22:38:51.838Z,2.70
2022-11-19T22:41:21.326Z,2.70
2022-11-19T22:43:49.031Z,2.70
2022-11-19T22:46:17.373Z,2.70
2022-11-19T22:48:44.488Z,2.60
2022-11-19T22:51:15.574Z,2.60
2022-11-19T22:53:44.362Z,2.60
2022-11-19T22:56:16.327Z,2.50
2022-11-19T22:58:43.674Z,2.50
2022-11-19T23:01:29.797Z,2.50
2022-11-19T23:03:59.234Z,2.50
2022-11-19T23:06:26.612Z,2.50
2022-11-19T23:08:54.513Z,2.50
2022-11-19T23:11:41.920Z,2.50
2022-11-19T23:14:15.656Z,2.50
2022-11-19T23:16:43.151Z,2.50
2022-11-19T23:19:11.945Z,2.50
2022-11-19T23:21:40.230Z,2.60
2022-11-19T23:24:09.631Z,2.70
2022-11-19T23:26:36.965Z,2.70
2022-11-19T23:29:04.801Z,2.70
2022-11-19T23:31:38.887Z,2.70
2022-11-19T23:34:06.840Z,2.70
2022-11-19T23:36:37.759Z,2.60
2022-11-19T23:39:06.409Z,2.50
2022-11-19T23:41:34.611Z,2.60
2022-11-19T23:44:01.946Z,2.60
2022-11-19T23:46:32.460Z,2.60
2022-11-19T23:49:00.407Z,2.60
2022-11-19T23:51:33.273Z,2.60
2022-11-19T23:54:01.814Z,2.50
2022-11-19T23:56:32.212Z,2.40
2022-11-19T23:59:02.589Z,2.40
